EBBELPMR

Guest
Details From EBBE - Beauvechain
To LPMR - Monte Real
Flight Number -
Tags Generated
Created
Modified
Stats Distance 871 nm / 1,614 km
Max Altitude 0 ft / 0 m
Waypoints 6
Social Downloads 0
Likes 0
Share VATSIM

Download

Looking for another format? Having issues loading an existing format? Contact us
Advertisement - Login to hide

Notes

Generated

Route

EBBE GONEK LEBRI VEDER CB LPMR

ID Type Via Altitude Latitude Longitude Leg Dist Tot Dist Heading (true) Name
O EBBE APT - 0 ft / 0 m 50.74692˚ 4.75986˚ - 0 nm - -
GONEK FIX - 0 ft / 0 m 48.12000˚ 0.60333˚ 226 nm 226 nm 227° / 224° -
LEBRI FIX - 0 ft / 0 m 45.81111˚ -2.53361˚ 189 nm 415 nm 224° / 222° -
VEDER FIX - 0 ft / 0 m 42.74296˚ -5.86964˚ 233 nm 648 nm 219° / 217° -
CB NDB - 0 ft / 0 m 40.16056˚ -8.47194˚ 194 nm 843 nm 218° / 216° COIMBRA NDB
O LPMR APT - 0 ft / 0 m 39.81777˚ -8.88779˚ 28 nm 871 nm 223° / 223° -

Altitude Profile

Advertisement - Login to hide

Weather


0- 5 10 15 20 25 30 35+ Temperature / ° C

Clouds and Precipitation
Forecast for 2018-05-21 12:00 UTC. Updated 4 hours ago

Ground ~20,000 ft ~40,000 ft Winds

EBBE

Details ICAO EBBE
Name Beauvechain
Region Belgium
Timezone Europe/Brussels (UTC+2.0)
Stats Elevation 341 ft / 104 m (AMSL)
Location 50.756950° 4.769359°
Runways 2
Magnetic Variation 1.275° E

METAR

EBBE 211455Z AUTO 11004KT 9999 NCD 24/11 Q1012 BLU

Decode

TAF

Not found

Departure Runways

ID Width Length Bearing (true) Bearing (mag) Surface Threshold Offset Overrun Length
04L 148 ft / 45 m 9,154 ft / 2,790 m 38.81° 37.53° Asphalt 213 ft / 65 m 965 ft / 294 m
04R 75 ft / 23 m 7,599 ft / 2,316 m 38.85° 37.57° Asphalt 0 ft / 0 m 0 ft / 0 m
22L 75 ft / 23 m 7,599 ft / 2,316 m 218.86° 217.58° Asphalt 0 ft / 0 m 0 ft / 0 m
22R 148 ft / 45 m 9,154 ft / 2,790 m 218.83° 217.55° Asphalt 1,145 ft / 349 m 0 ft / 0 m

LPMR

Details ICAO LPMR
Name MONTE REAL
Region Portugal
Timezone Europe/Lisbon (UTC+1.0)
Stats Elevation 187 ft / 57 m (AMSL)
Location 39.831239° -8.887258°
Runways 1
Magnetic Variation 2.273° W

METAR

LPMR 211500Z 27010KT 220V310 9999 FEW020 18/12 Q1012

Decode

TAF

TAF TAF LPMR 211105Z 2112/2212 25010KT 9999 FEW018 BECMG 2117/2119 25006KT SCT014 BECMG 2116/2118 BKN012 BECMG 2121/2124 VRB02KT PROB40 2200/2206 0500 FG BKN005 BECMG 2208/2210 16008KT

Decode

Destination Runways

ID Width Length Bearing (true) Bearing (mag) Surface Threshold Offset Overrun Length
01 148 ft / 45 m 9,833 ft / 2,997 m 1.73° 4.00° Concrete 886 ft / 270 m 0 ft / 0 m
19 148 ft / 45 m 9,833 ft / 2,997 m 181.73° 184.00° Concrete 863 ft / 263 m 0 ft / 0 m

Approach Navaids

Runway Type Ident Frequency Range Bearing (true) Bearing (mag) Slope Elevation
19 Localiser MR 110.30 MHz 18 nm / 33 km 181.74° 184.02° - 187 ft / 57 m (AMSL)
19 Glidescope MR 110.30 MHz 10 nm / 19 km 181.73° 184.01° 2.50° 187 ft / 57 m (AMSL)